Terminal Aerodrome Forecast
Issued by NWS

Home | Current Version | Previous Version | Text Only | Print | Product List | Glossary On
Versions: 1 2 3 4 5 6 7 8 9 10 11 12 13 14 15 16 17
000
FTUS41 KGYX 201735
TAFAUG
TAF
KAUG 201735Z 2018/2118 20010G15KT P6SM BKN025
     FM202100 20006KT P6SM BKN100
     FM210700 20004KT 1SM BR BKN004
     FM211300 19004KT 3SM -RA BR OVC008=

USA.gov is the U.S. government's official web portal to all federal, state and local government web resources and services.